sensor_id;sensor_type;location;lat;lon;timestamp;temperature;humidity
12752;DHT22;6440;44.616;2.032;2022-08-14T00:00:08;26.40;99.60
12752;DHT22;6440;44.616;2.032;2022-08-14T00:02:36;26.40;99.90
12752;DHT22;6440;44.616;2.032;2022-08-14T00:05:06;26.40;99.90
12752;DHT22;6440;44.616;2.032;2022-08-14T00:07:36;26.40;99.90
12752;DHT22;6440;44.616;2.032;2022-08-14T00:10:04;26.20;99.90
12752;DHT22;6440;44.616;2.032;2022-08-14T00:12:33;26.10;99.90
12752;DHT22;6440;44.616;2.032;2022-08-14T00:15:00;25.90;99.90
12752;DHT22;6440;44.616;2.032;2022-08-14T00:17:28;25.80;99.90
12752;DHT22;6440;44.616;2.032;2022-08-14T00:19:56;25.70;99.90
12752;DHT22;6440;44.616;2.032;2022-08-14T00:22:25;25.60;99.90
12752;DHT22;6440;44.616;2.032;2022-08-14T00:24:54;25.60;99.90
12752;DHT22;6440;44.616;2.032;2022-08-14T00:27:22;25.50;99.90
12752;DHT22;6440;44.616;2.032;2022-08-14T00:29:51;25.50;99.90
12752;DHT22;6440;44.616;2.032;2022-08-14T00:32:20;25.50;99.90
12752;DHT22;6440;44.616;2.032;2022-08-14T00:34:49;25.50;99.90
12752;DHT22;6440;44.616;2.032;2022-08-14T00:37:17;25.50;99.90
12752;DHT22;6440;44.616;2.032;2022-08-14T00:39:46;25.40;99.90
12752;DHT22;6440;44.616;2.032;2022-08-14T00:42:17;25.30;99.90
12752;DHT22;6440;44.616;2.032;2022-08-14T00:44:42;25.20;99.90
12752;DHT22;6440;44.616;2.032;2022-08-14T00:47:12;25.30;99.90
12752;DHT22;6440;44.616;2.032;2022-08-14T00:49:39;25.30;99.90
12752;DHT22;6440;44.616;2.032;2022-08-14T00:52:07;25.30;99.90
12752;DHT22;6440;44.616;2.032;2022-08-14T00:54:35;25.30;99.90
12752;DHT22;6440;44.616;2.032;2022-08-14T00:57:04;25.30;99.90
12752;DHT22;6440;44.616;2.032;2022-08-14T00:59:32;25.20;99.90
12752;DHT22;6440;44.616;2.032;2022-08-14T01:02:00;25.30;99.90
12752;DHT22;6440;44.616;2.032;2022-08-14T01:04:28;25.20;99.90
12752;DHT22;6440;44.616;2.032;2022-08-14T01:06:55;25.10;99.90
12752;DHT22;6440;44.616;2.032;2022-08-14T01:09:23;25.10;99.90
12752;DHT22;6440;44.616;2.032;2022-08-14T01:11:51;25.10;99.90
12752;DHT22;6440;44.616;2.032;2022-08-14T01:14:19;25.10;99.90
12752;DHT22;6440;44.616;2.032;2022-08-14T01:16:47;25.00;99.90
12752;DHT22;6440;44.616;2.032;2022-08-14T01:19:15;25.00;99.90
12752;DHT22;6440;44.616;2.032;2022-08-14T01:21:48;25.00;99.90
12752;DHT22;6440;44.616;2.032;2022-08-14T01:24:17;24.90;99.90
12752;DHT22;6440;44.616;2.032;2022-08-14T01:26:46;24.90;99.90
12752;DHT22;6440;44.616;2.032;2022-08-14T01:29:14;24.90;99.90
12752;DHT22;6440;44.616;2.032;2022-08-14T01:31:43;24.80;99.90
12752;DHT22;6440;44.616;2.032;2022-08-14T01:34:12;24.80;99.90
12752;DHT22;6440;44.616;2.032;2022-08-14T01:36:40;24.80;99.90
12752;DHT22;6440;44.616;2.032;2022-08-14T01:39:10;24.80;99.90
12752;DHT22;6440;44.616;2.032;2022-08-14T01:41:38;24.80;99.90
12752;DHT22;6440;44.616;2.032;2022-08-14T01:44:06;24.70;99.90
12752;DHT22;6440;44.616;2.032;2022-08-14T01:46:34;24.60;99.90
12752;DHT22;6440;44.616;2.032;2022-08-14T01:49:01;24.50;99.90
12752;DHT22;6440;44.616;2.032;2022-08-14T01:51:28;24.50;99.90
12752;DHT22;6440;44.616;2.032;2022-08-14T01:53:58;24.60;99.90
12752;DHT22;6440;44.616;2.032;2022-08-14T01:56:26;24.60;99.90
12752;DHT22;6440;44.616;2.032;2022-08-14T01:59:17;24.60;99.90
12752;DHT22;6440;44.616;2.032;2022-08-14T02:01:47;24.60;99.90
12752;DHT22;6440;44.616;2.032;2022-08-14T02:04:14;24.60;99.90
12752;DHT22;6440;44.616;2.032;2022-08-14T02:06:43;24.40;99.90
12752;DHT22;6440;44.616;2.032;2022-08-14T02:09:11;24.30;99.90
12752;DHT22;6440;44.616;2.032;2022-08-14T02:11:40;24.30;99.90
12752;DHT22;6440;44.616;2.032;2022-08-14T02:14:09;24.30;99.90
12752;DHT22;6440;44.616;2.032;2022-08-14T02:16:39;24.30;99.90
12752;DHT22;6440;44.616;2.032;2022-08-14T02:19:06;24.30;99.90
12752;DHT22;6440;44.616;2.032;2022-08-14T02:21:33;24.20;99.90
12752;DHT22;6440;44.616;2.032;2022-08-14T02:24:01;24.10;99.90
12752;DHT22;6440;44.616;2.032;2022-08-14T02:26:29;24.00;99.90
12752;DHT22;6440;44.616;2.032;2022-08-14T02:28:58;23.90;99.90
12752;DHT22;6440;44.616;2.032;2022-08-14T02:31:27;23.70;99.90
12752;DHT22;6440;44.616;2.032;2022-08-14T02:33:55;23.60;99.90
12752;DHT22;6440;44.616;2.032;2022-08-14T02:36:24;23.60;99.90
12752;DHT22;6440;44.616;2.032;2022-08-14T02:38:52;23.50;99.90
12752;DHT22;6440;44.616;2.032;2022-08-14T02:41:20;23.50;99.90
12752;DHT22;6440;44.616;2.032;2022-08-14T02:43:49;23.50;99.90
12752;DHT22;6440;44.616;2.032;2022-08-14T02:46:16;23.60;99.90
12752;DHT22;6440;44.616;2.032;2022-08-14T02:48:45;23.70;99.90
12752;DHT22;6440;44.616;2.032;2022-08-14T02:51:13;23.70;99.90
12752;DHT22;6440;44.616;2.032;2022-08-14T02:53:43;23.70;99.90
12752;DHT22;6440;44.616;2.032;2022-08-14T02:56:10;23.80;99.90
12752;DHT22;6440;44.616;2.032;2022-08-14T02:58:38;23.80;99.90
12752;DHT22;6440;44.616;2.032;2022-08-14T03:01:06;23.80;99.90
12752;DHT22;6440;44.616;2.032;2022-08-14T03:03:35;23.80;99.90
12752;DHT22;6440;44.616;2.032;2022-08-14T03:06:03;23.70;99.90
12752;DHT22;6440;44.616;2.032;2022-08-14T03:08:31;23.70;99.90
12752;DHT22;6440;44.616;2.032;2022-08-14T03:10:59;23.60;99.90
12752;DHT22;6440;44.616;2.032;2022-08-14T03:13:26;23.60;99.90
12752;DHT22;6440;44.616;2.032;2022-08-14T03:15:55;23.50;99.90
12752;DHT22;6440;44.616;2.032;2022-08-14T03:18:25;23.50;99.90
12752;DHT22;6440;44.616;2.032;2022-08-14T03:20:52;23.50;99.90
12752;DHT22;6440;44.616;2.032;2022-08-14T03:23:20;23.50;99.90
12752;DHT22;6440;44.616;2.032;2022-08-14T03:25:48;23.50;99.90
12752;DHT22;6440;44.616;2.032;2022-08-14T03:28:16;23.50;99.90
12752;DHT22;6440;44.616;2.032;2022-08-14T03:30:45;23.50;99.90
12752;DHT22;6440;44.616;2.032;2022-08-14T03:33:14;23.50;99.90
12752;DHT22;6440;44.616;2.032;2022-08-14T03:35:42;23.50;99.90
12752;DHT22;6440;44.616;2.032;2022-08-14T03:38:11;23.40;99.90
12752;DHT22;6440;44.616;2.032;2022-08-14T03:40:39;23.40;99.90
12752;DHT22;6440;44.616;2.032;2022-08-14T03:43:06;23.30;99.90
12752;DHT22;6440;44.616;2.032;2022-08-14T03:45:34;23.20;99.90
12752;DHT22;6440;44.616;2.032;2022-08-14T03:48:09;23.20;99.90
12752;DHT22;6440;44.616;2.032;2022-08-14T03:50:37;23.20;99.90
12752;DHT22;6440;44.616;2.032;2022-08-14T03:53:05;23.20;99.90
12752;DHT22;6440;44.616;2.032;2022-08-14T03:55:34;23.20;99.90
12752;DHT22;6440;44.616;2.032;2022-08-14T03:58:02;23.20;99.90
12752;DHT22;6440;44.616;2.032;2022-08-14T04:00:31;23.20;99.90
12752;DHT22;6440;44.616;2.032;2022-08-14T04:02:59;23.20;99.90
12752;DHT22;6440;44.616;2.032;2022-08-14T04:05:27;23.20;99.90
12752;DHT22;6440;44.616;2.032;2022-08-14T04:07:55;23.20;99.90
12752;DHT22;6440;44.616;2.032;2022-08-14T04:10:24;23.20;99.90
12752;DHT22;6440;44.616;2.032;2022-08-14T04:12:52;23.20;99.90
12752;DHT22;6440;44.616;2.032;2022-08-14T04:15:21;23.20;99.90
12752;DHT22;6440;44.616;2.032;2022-08-14T04:17:49;23.10;99.90
12752;DHT22;6440;44.616;2.032;2022-08-14T04:20:18;23.10;99.90
12752;DHT22;6440;44.616;2.032;2022-08-14T04:22:46;23.10;99.90
12752;DHT22;6440;44.616;2.032;2022-08-14T04:25:14;23.00;99.90
12752;DHT22;6440;44.616;2.032;2022-08-14T04:27:42;23.00;99.90
12752;DHT22;6440;44.616;2.032;2022-08-14T04:30:11;23.10;99.90
12752;DHT22;6440;44.616;2.032;2022-08-14T04:32:40;23.00;99.90
12752;DHT22;6440;44.616;2.032;2022-08-14T04:35:08;23.00;99.90
12752;DHT22;6440;44.616;2.032;2022-08-14T04:37:37;22.90;99.90
12752;DHT22;6440;44.616;2.032;2022-08-14T04:40:11;22.90;99.90
12752;DHT22;6440;44.616;2.032;2022-08-14T04:42:44;22.90;99.90
12752;DHT22;6440;44.616;2.032;2022-08-14T04:45:20;22.90;99.90
12752;DHT22;6440;44.616;2.032;2022-08-14T04:47:48;23.00;99.90
12752;DHT22;6440;44.616;2.032;2022-08-14T04:50:21;23.00;99.90
12752;DHT22;6440;44.616;2.032;2022-08-14T04:52:49;23.00;99.90
12752;DHT22;6440;44.616;2.032;2022-08-14T04:55:18;23.00;99.90
12752;DHT22;6440;44.616;2.032;2022-08-14T04:57:47;23.00;99.90
12752;DHT22;6440;44.616;2.032;2022-08-14T05:00:15;23.00;99.90
12752;DHT22;6440;44.616;2.032;2022-08-14T05:02:44;22.90;99.90
12752;DHT22;6440;44.616;2.032;2022-08-14T05:05:13;22.90;99.90
12752;DHT22;6440;44.616;2.032;2022-08-14T05:07:41;22.80;99.90
12752;DHT22;6440;44.616;2.032;2022-08-14T05:10:09;22.80;99.90
12752;DHT22;6440;44.616;2.032;2022-08-14T05:12:38;22.80;99.90
12752;DHT22;6440;44.616;2.032;2022-08-14T05:15:08;22.80;99.90
12752;DHT22;6440;44.616;2.032;2022-08-14T05:17:41;22.80;99.90
12752;DHT22;6440;44.616;2.032;2022-08-14T05:20:09;22.80;99.90
12752;DHT22;6440;44.616;2.032;2022-08-14T05:22:37;22.70;99.90
12752;DHT22;6440;44.616;2.032;2022-08-14T05:25:06;22.70;99.90
12752;DHT22;6440;44.616;2.032;2022-08-14T05:27:35;22.70;99.90
12752;DHT22;6440;44.616;2.032;2022-08-14T05:30:04;22.70;99.90
12752;DHT22;6440;44.616;2.032;2022-08-14T05:32:33;22.70;99.90
12752;DHT22;6440;44.616;2.032;2022-08-14T05:35:01;22.70;99.90
12752;DHT22;6440;44.616;2.032;2022-08-14T05:37:30;22.70;99.90
12752;DHT22;6440;44.616;2.032;2022-08-14T05:39:59;22.70;99.90
12752;DHT22;6440;44.616;2.032;2022-08-14T05:42:27;22.70;99.90
12752;DHT22;6440;44.616;2.032;2022-08-14T05:44:56;22.70;99.90
12752;DHT22;6440;44.616;2.032;2022-08-14T05:47:24;22.70;99.90
12752;DHT22;6440;44.616;2.032;2022-08-14T05:49:53;22.80;99.90
12752;DHT22;6440;44.616;2.032;2022-08-14T05:52:21;22.80;99.90
12752;DHT22;6440;44.616;2.032;2022-08-14T05:54:50;22.80;99.90
12752;DHT22;6440;44.616;2.032;2022-08-14T05:57:19;22.90;99.90
12752;DHT22;6440;44.616;2.032;2022-08-14T05:59:47;22.90;99.90
12752;DHT22;6440;44.616;2.032;2022-08-14T06:02:16;22.80;99.90
12752;DHT22;6440;44.616;2.032;2022-08-14T06:04:45;22.70;99.90
12752;DHT22;6440;44.616;2.032;2022-08-14T06:07:14;22.60;99.90
12752;DHT22;6440;44.616;2.032;2022-08-14T06:09:42;22.60;99.90
12752;DHT22;6440;44.616;2.032;2022-08-14T06:12:10;22.60;99.90
12752;DHT22;6440;44.616;2.032;2022-08-14T06:14:38;22.70;99.90
12752;DHT22;6440;44.616;2.032;2022-08-14T06:17:07;22.70;99.90
12752;DHT22;6440;44.616;2.032;2022-08-14T06:19:36;22.60;99.90
12752;DHT22;6440;44.616;2.032;2022-08-14T06:22:04;22.60;99.90
12752;DHT22;6440;44.616;2.032;2022-08-14T06:24:33;22.50;99.90
12752;DHT22;6440;44.616;2.032;2022-08-14T06:27:02;22.50;99.90
12752;DHT22;6440;44.616;2.032;2022-08-14T06:29:30;22.50;99.90
12752;DHT22;6440;44.616;2.032;2022-08-14T06:31:58;22.50;99.90
12752;DHT22;6440;44.616;2.032;2022-08-14T06:34:26;22.60;99.90
12752;DHT22;6440;44.616;2.032;2022-08-14T06:36:55;22.60;99.90
12752;DHT22;6440;44.616;2.032;2022-08-14T06:39:24;22.70;99.90
12752;DHT22;6440;44.616;2.032;2022-08-14T06:41:52;22.70;99.90
12752;DHT22;6440;44.616;2.032;2022-08-14T06:44:20;22.70;99.90
12752;DHT22;6440;44.616;2.032;2022-08-14T06:46:49;22.70;99.90
12752;DHT22;6440;44.616;2.032;2022-08-14T06:49:18;22.70;99.90
12752;DHT22;6440;44.616;2.032;2022-08-14T06:51:47;22.80;99.90
12752;DHT22;6440;44.616;2.032;2022-08-14T06:54:15;23.00;99.90
12752;DHT22;6440;44.616;2.032;2022-08-14T06:56:44;23.10;99.90
12752;DHT22;6440;44.616;2.032;2022-08-14T06:59:14;23.40;99.90
12752;DHT22;6440;44.616;2.032;2022-08-14T07:01:41;23.60;99.90
12752;DHT22;6440;44.616;2.032;2022-08-14T07:04:15;23.80;99.90
12752;DHT22;6440;44.616;2.032;2022-08-14T07:06:49;23.90;99.90
12752;DHT22;6440;44.616;2.032;2022-08-14T07:09:17;23.90;99.90
12752;DHT22;6440;44.616;2.032;2022-08-14T07:11:46;23.90;99.90
12752;DHT22;6440;44.616;2.032;2022-08-14T07:14:14;23.90;99.90
12752;DHT22;6440;44.616;2.032;2022-08-14T07:16:43;23.90;99.90
12752;DHT22;6440;44.616;2.032;2022-08-14T07:19:15;23.90;99.90
12752;DHT22;6440;44.616;2.032;2022-08-14T07:21:40;23.90;99.90
12752;DHT22;6440;44.616;2.032;2022-08-14T07:24:08;23.90;99.90
12752;DHT22;6440;44.616;2.032;2022-08-14T07:26:38;23.90;99.90
12752;DHT22;6440;44.616;2.032;2022-08-14T07:29:05;23.80;99.90
12752;DHT22;6440;44.616;2.032;2022-08-14T07:31:34;23.80;99.90
12752;DHT22;6440;44.616;2.032;2022-08-14T07:34:03;23.80;99.90
12752;DHT22;6440;44.616;2.032;2022-08-14T07:36:32;23.80;99.90
12752;DHT22;6440;44.616;2.032;2022-08-14T07:39:00;23.80;99.90
12752;DHT22;6440;44.616;2.032;2022-08-14T07:41:28;23.70;99.90
12752;DHT22;6440;44.616;2.032;2022-08-14T07:43:56;23.60;99.90
12752;DHT22;6440;44.616;2.032;2022-08-14T07:46:25;23.50;99.90
12752;DHT22;6440;44.616;2.032;2022-08-14T07:48:54;23.30;99.90
12752;DHT22;6440;44.616;2.032;2022-08-14T07:51:22;23.20;99.90
12752;DHT22;6440;44.616;2.032;2022-08-14T07:53:51;23.10;99.90
12752;DHT22;6440;44.616;2.032;2022-08-14T07:56:19;23.10;99.90
12752;DHT22;6440;44.616;2.032;2022-08-14T07:58:48;23.30;99.90
12752;DHT22;6440;44.616;2.032;2022-08-14T08:01:16;23.50;99.90
12752;DHT22;6440;44.616;2.032;2022-08-14T08:03:45;23.70;99.90
12752;DHT22;6440;44.616;2.032;2022-08-14T08:06:13;24.30;99.90
12752;DHT22;6440;44.616;2.032;2022-08-14T08:08:41;25.50;99.90
12752;DHT22;6440;44.616;2.032;2022-08-14T08:11:09;27.20;97.20
12752;DHT22;6440;44.616;2.032;2022-08-14T08:13:36;28.80;91.30
12752;DHT22;6440;44.616;2.032;2022-08-14T08:16:04;29.90;86.80
12752;DHT22;6440;44.616;2.032;2022-08-14T08:18:32;30.80;85.50
12752;DHT22;6440;44.616;2.032;2022-08-14T08:21:00;31.50;82.90
12752;DHT22;6440;44.616;2.032;2022-08-14T08:23:29;32.30;79.60
12752;DHT22;6440;44.616;2.032;2022-08-14T08:25:56;33.10;77.70
12752;DHT22;6440;44.616;2.032;2022-08-14T08:28:25;33.90;76.00
12752;DHT22;6440;44.616;2.032;2022-08-14T08:30:59;34.00;74.40
12752;DHT22;6440;44.616;2.032;2022-08-14T08:33:27;34.20;72.10
12752;DHT22;6440;44.616;2.032;2022-08-14T08:35:57;34.50;72.20
12752;DHT22;6440;44.616;2.032;2022-08-14T08:38:25;34.20;72.20
12752;DHT22;6440;44.616;2.032;2022-08-14T08:40:55;34.00;71.50
12752;DHT22;6440;44.616;2.032;2022-08-14T08:43:21;34.10;71.10
12752;DHT22;6440;44.616;2.032;2022-08-14T08:45:59;33.80;71.70
12752;DHT22;6440;44.616;2.032;2022-08-14T08:48:41;32.90;74.20
12752;DHT22;6440;44.616;2.032;2022-08-14T08:51:03;32.30;74.40
12752;DHT22;6440;44.616;2.032;2022-08-14T08:53:33;32.10;74.80
12752;DHT22;6440;44.616;2.032;2022-08-14T08:56:00;32.20;73.00
12752;DHT22;6440;44.616;2.032;2022-08-14T08:58:28;31.50;74.00
12752;DHT22;6440;44.616;2.032;2022-08-14T09:00:56;30.40;75.20
12752;DHT22;6440;44.616;2.032;2022-08-14T09:03:24;29.40;77.70
12752;DHT22;6440;44.616;2.032;2022-08-14T09:05:54;28.80;79.90
12752;DHT22;6440;44.616;2.032;2022-08-14T09:08:24;28.50;80.60
12752;DHT22;6440;44.616;2.032;2022-08-14T09:10:51;28.00;81.70
12752;DHT22;6440;44.616;2.032;2022-08-14T09:13:19;27.30;81.30
12752;DHT22;6440;44.616;2.032;2022-08-14T09:15:46;26.80;82.80
12752;DHT22;6440;44.616;2.032;2022-08-14T09:18:15;26.60;84.00
12752;DHT22;6440;44.616;2.032;2022-08-14T09:20:43;26.50;83.80
12752;DHT22;6440;44.616;2.032;2022-08-14T09:23:10;26.40;84.30
12752;DHT22;6440;44.616;2.032;2022-08-14T09:25:38;26.50;85.60
12752;DHT22;6440;44.616;2.032;2022-08-14T09:28:05;26.60;84.10
12752;DHT22;6440;44.616;2.032;2022-08-14T09:30:34;26.70;86.30
12752;DHT22;6440;44.616;2.032;2022-08-14T09:36:45;27.00;86.40
12752;DHT22;6440;44.616;2.032;2022-08-14T09:39:06;27.60;85.50
12752;DHT22;6440;44.616;2.032;2022-08-14T09:43:03;28.70;83.10
12752;DHT22;6440;44.616;2.032;2022-08-14T09:45:11;29.90;81.00
12752;DHT22;6440;44.616;2.032;2022-08-14T09:47:51;30.50;78.00
12752;DHT22;6440;44.616;2.032;2022-08-14T09:50:22;31.10;77.60
12752;DHT22;6440;44.616;2.032;2022-08-14T09:52:55;31.80;77.90
12752;DHT22;6440;44.616;2.032;2022-08-14T09:55:21;32.00;76.80
12752;DHT22;6440;44.616;2.032;2022-08-14T09:57:49;31.40;77.90
12752;DHT22;6440;44.616;2.032;2022-08-14T10:00:17;30.50;79.20
12752;DHT22;6440;44.616;2.032;2022-08-14T10:02:52;29.90;81.20
12752;DHT22;6440;44.616;2.032;2022-08-14T10:05:29;29.40;82.00
12752;DHT22;6440;44.616;2.032;2022-08-14T10:07:56;28.70;83.10
12752;DHT22;6440;44.616;2.032;2022-08-14T10:10:37;28.10;85.20
12752;DHT22;6440;44.616;2.032;2022-08-14T10:13:06;27.60;85.60
12752;DHT22;6440;44.616;2.032;2022-08-14T10:15:37;26.90;87.20
12752;DHT22;6440;44.616;2.032;2022-08-14T10:18:07;26.50;88.40
12752;DHT22;6440;44.616;2.032;2022-08-14T10:20:35;26.10;89.30
12752;DHT22;6440;44.616;2.032;2022-08-14T10:23:14;25.50;90.70
12752;DHT22;6440;44.616;2.032;2022-08-14T10:25:42;24.90;93.40
12752;DHT22;6440;44.616;2.032;2022-08-14T10:28:10;24.40;96.20
12752;DHT22;6440;44.616;2.032;2022-08-14T10:30:37;24.00;99.90
12752;DHT22;6440;44.616;2.032;2022-08-14T10:33:06;23.30;99.90
12752;DHT22;6440;44.616;2.032;2022-08-14T10:35:39;22.50;99.90
12752;DHT22;6440;44.616;2.032;2022-08-14T10:38:06;22.00;99.90
12752;DHT22;6440;44.616;2.032;2022-08-14T10:40:35;21.50;99.90
12752;DHT22;6440;44.616;2.032;2022-08-14T10:43:14;21.20;99.90
12752;DHT22;6440;44.616;2.032;2022-08-14T10:45:32;20.80;99.90
12752;DHT22;6440;44.616;2.032;2022-08-14T10:47:59;20.30;99.90
12752;DHT22;6440;44.616;2.032;2022-08-14T10:50:30;20.30;99.90
12752;DHT22;6440;44.616;2.032;2022-08-14T10:52:58;20.20;99.90
12752;DHT22;6440;44.616;2.032;2022-08-14T10:55:31;20.20;99.90
12752;DHT22;6440;44.616;2.032;2022-08-14T10:57:59;20.30;99.90
12752;DHT22;6440;44.616;2.032;2022-08-14T11:00:28;20.50;99.90
12752;DHT22;6440;44.616;2.032;2022-08-14T11:02:59;20.70;99.90
12752;DHT22;6440;44.616;2.032;2022-08-14T11:08:12;21.30;99.90
12752;DHT22;6440;44.616;2.032;2022-08-14T11:10:45;21.70;99.90
12752;DHT22;6440;44.616;2.032;2022-08-14T11:13:18;22.10;99.90
12752;DHT22;6440;44.616;2.032;2022-08-14T11:15:44;22.60;99.90
12752;DHT22;6440;44.616;2.032;2022-08-14T11:18:13;23.00;99.90
12752;DHT22;6440;44.616;2.032;2022-08-14T11:20:47;23.40;99.90
12752;DHT22;6440;44.616;2.032;2022-08-14T11:23:15;23.70;99.90
12752;DHT22;6440;44.616;2.032;2022-08-14T11:25:43;24.00;99.90
12752;DHT22;6440;44.616;2.032;2022-08-14T11:28:12;24.10;99.90
12752;DHT22;6440;44.616;2.032;2022-08-14T11:30:39;24.10;99.90
12752;DHT22;6440;44.616;2.032;2022-08-14T11:33:07;24.00;99.90
12752;DHT22;6440;44.616;2.032;2022-08-14T11:35:35;23.60;99.90
12752;DHT22;6440;44.616;2.032;2022-08-14T11:38:04;23.30;99.90
12752;DHT22;6440;44.616;2.032;2022-08-14T11:40:33;23.60;99.90
12752;DHT22;6440;44.616;2.032;2022-08-14T11:43:01;24.30;99.90
12752;DHT22;6440;44.616;2.032;2022-08-14T11:45:28;25.10;99.90
12752;DHT22;6440;44.616;2.032;2022-08-14T11:48:01;25.80;97.50
12752;DHT22;6440;44.616;2.032;2022-08-14T11:50:29;26.50;97.90
12752;DHT22;6440;44.616;2.032;2022-08-14T11:52:57;26.90;97.30
12752;DHT22;6440;44.616;2.032;2022-08-14T11:55:24;27.00;97.10
12752;DHT22;6440;44.616;2.032;2022-08-14T11:57:58;27.00;93.60
12752;DHT22;6440;44.616;2.032;2022-08-14T12:00:25;26.60;96.80
12752;DHT22;6440;44.616;2.032;2022-08-14T12:02:55;26.10;96.60
12752;DHT22;6440;44.616;2.032;2022-08-14T12:05:36;26.00;97.20
12752;DHT22;6440;44.616;2.032;2022-08-14T12:08:04;26.20;99.80
12752;DHT22;6440;44.616;2.032;2022-08-14T12:10:33;26.20;95.00
12752;DHT22;6440;44.616;2.032;2022-08-14T12:15:42;25.60;97.50
12752;DHT22;6440;44.616;2.032;2022-08-14T12:18:10;25.60;99.90
12752;DHT22;6440;44.616;2.032;2022-08-14T12:20:38;25.70;99.50
12752;DHT22;6440;44.616;2.032;2022-08-14T12:23:06;25.80;98.30
12752;DHT22;6440;44.616;2.032;2022-08-14T12:25:33;26.10;99.80
12752;DHT22;6440;44.616;2.032;2022-08-14T12:28:01;26.40;97.10
12752;DHT22;6440;44.616;2.032;2022-08-14T12:30:32;26.50;98.10
12752;DHT22;6440;44.616;2.032;2022-08-14T12:33:00;26.30;96.00
12752;DHT22;6440;44.616;2.032;2022-08-14T12:35:36;26.10;95.10
12752;DHT22;6440;44.616;2.032;2022-08-14T12:38:04;25.70;95.90
12752;DHT22;6440;44.616;2.032;2022-08-14T12:40:32;25.50;98.90
12752;DHT22;6440;44.616;2.032;2022-08-14T12:43:00;25.70;97.70
12752;DHT22;6440;44.616;2.032;2022-08-14T12:45:30;25.90;93.10
12752;DHT22;6440;44.616;2.032;2022-08-14T12:47:58;26.10;93.10
12752;DHT22;6440;44.616;2.032;2022-08-14T12:50:33;26.30;97.80
12752;DHT22;6440;44.616;2.032;2022-08-14T12:52:52;26.50;93.10
12752;DHT22;6440;44.616;2.032;2022-08-14T12:55:20;26.60;90.60
12752;DHT22;6440;44.616;2.032;2022-08-14T12:57:50;26.40;91.80
12752;DHT22;6440;44.616;2.032;2022-08-14T13:00:19;26.30;91.90
12752;DHT22;6440;44.616;2.032;2022-08-14T13:02:48;26.40;93.60
12752;DHT22;6440;44.616;2.032;2022-08-14T13:05:14;26.60;88.40
12752;DHT22;6440;44.616;2.032;2022-08-14T13:07:43;26.50;91.70
12752;DHT22;6440;44.616;2.032;2022-08-14T13:10:11;26.60;87.90
12752;DHT22;6440;44.616;2.032;2022-08-14T13:12:41;26.80;90.60
12752;DHT22;6440;44.616;2.032;2022-08-14T13:15:09;27.00;90.50
12752;DHT22;6440;44.616;2.032;2022-08-14T13:17:40;27.30;89.30
12752;DHT22;6440;44.616;2.032;2022-08-14T13:20:08;27.40;87.30
12752;DHT22;6440;44.616;2.032;2022-08-14T13:22:37;27.50;88.60
12752;DHT22;6440;44.616;2.032;2022-08-14T13:25:05;27.60;87.80
12752;DHT22;6440;44.616;2.032;2022-08-14T13:27:33;27.70;82.90
12752;DHT22;6440;44.616;2.032;2022-08-14T13:30:06;27.80;85.30
12752;DHT22;6440;44.616;2.032;2022-08-14T13:32:33;27.80;84.20
12752;DHT22;6440;44.616;2.032;2022-08-14T13:35:01;27.70;84.40
12752;DHT22;6440;44.616;2.032;2022-08-14T13:37:29;27.60;84.90
12752;DHT22;6440;44.616;2.032;2022-08-14T13:39:57;27.40;85.10
12752;DHT22;6440;44.616;2.032;2022-08-14T13:42:26;27.40;83.60
12752;DHT22;6440;44.616;2.032;2022-08-14T13:44:54;27.50;85.30
12752;DHT22;6440;44.616;2.032;2022-08-14T13:47:23;27.40;85.40
12752;DHT22;6440;44.616;2.032;2022-08-14T13:49:50;27.40;86.40
12752;DHT22;6440;44.616;2.032;2022-08-14T13:52:19;27.30;87.50
12752;DHT22;6440;44.616;2.032;2022-08-14T13:54:46;27.40;88.30
12752;DHT22;6440;44.616;2.032;2022-08-14T13:57:13;27.40;88.10
12752;DHT22;6440;44.616;2.032;2022-08-14T13:59:42;27.60;88.10
12752;DHT22;6440;44.616;2.032;2022-08-14T14:02:08;27.60;86.80
12752;DHT22;6440;44.616;2.032;2022-08-14T14:04:39;27.40;88.00
12752;DHT22;6440;44.616;2.032;2022-08-14T14:07:05;27.30;89.20
12752;DHT22;6440;44.616;2.032;2022-08-14T14:09:33;27.00;88.90
12752;DHT22;6440;44.616;2.032;2022-08-14T14:12:01;26.80;90.30
12752;DHT22;6440;44.616;2.032;2022-08-14T14:14:29;26.70;88.50
12752;DHT22;6440;44.616;2.032;2022-08-14T14:16:57;26.70;90.00
12752;DHT22;6440;44.616;2.032;2022-08-14T14:19:25;26.80;89.90
12752;DHT22;6440;44.616;2.032;2022-08-14T14:21:53;26.80;91.00
12752;DHT22;6440;44.616;2.032;2022-08-14T14:24:21;26.90;89.00
12752;DHT22;6440;44.616;2.032;2022-08-14T14:26:50;27.00;89.40
12752;DHT22;6440;44.616;2.032;2022-08-14T14:29:18;27.10;87.80
12752;DHT22;6440;44.616;2.032;2022-08-14T14:31:47;27.20;89.70
12752;DHT22;6440;44.616;2.032;2022-08-14T14:34:15;27.10;88.90
12752;DHT22;6440;44.616;2.032;2022-08-14T14:36:43;27.00;88.60
12752;DHT22;6440;44.616;2.032;2022-08-14T14:39:11;27.20;89.30
12752;DHT22;6440;44.616;2.032;2022-08-14T14:41:39;27.20;87.20
12752;DHT22;6440;44.616;2.032;2022-08-14T14:44:08;27.20;89.50
12752;DHT22;6440;44.616;2.032;2022-08-14T14:46:35;27.10;89.00
12752;DHT22;6440;44.616;2.032;2022-08-14T14:49:04;27.00;89.00
12752;DHT22;6440;44.616;2.032;2022-08-14T14:51:31;27.10;89.20
12752;DHT22;6440;44.616;2.032;2022-08-14T14:53:59;27.00;87.50
12752;DHT22;6440;44.616;2.032;2022-08-14T14:56:27;26.90;88.30
12752;DHT22;6440;44.616;2.032;2022-08-14T14:58:54;26.90;89.00
12752;DHT22;6440;44.616;2.032;2022-08-14T15:01:22;27.00;88.50
12752;DHT22;6440;44.616;2.032;2022-08-14T15:03:51;27.10;87.70
12752;DHT22;6440;44.616;2.032;2022-08-14T15:06:21;27.10;88.50
12752;DHT22;6440;44.616;2.032;2022-08-14T15:08:48;27.10;88.20
12752;DHT22;6440;44.616;2.032;2022-08-14T15:11:17;27.10;89.20
12752;DHT22;6440;44.616;2.032;2022-08-14T15:13:45;27.20;88.70
12752;DHT22;6440;44.616;2.032;2022-08-14T15:16:13;27.30;88.30
12752;DHT22;6440;44.616;2.032;2022-08-14T15:18:41;27.30;87.60
12752;DHT22;6440;44.616;2.032;2022-08-14T15:21:09;27.40;87.90
12752;DHT22;6440;44.616;2.032;2022-08-14T15:23:38;27.40;87.70
12752;DHT22;6440;44.616;2.032;2022-08-14T15:26:06;27.40;86.50
12752;DHT22;6440;44.616;2.032;2022-08-14T15:28:33;27.40;86.20
12752;DHT22;6440;44.616;2.032;2022-08-14T15:31:02;27.50;86.30
12752;DHT22;6440;44.616;2.032;2022-08-14T15:33:30;27.50;85.60
12752;DHT22;6440;44.616;2.032;2022-08-14T15:36:04;27.60;86.30
12752;DHT22;6440;44.616;2.032;2022-08-14T15:38:32;27.60;85.70
12752;DHT22;6440;44.616;2.032;2022-08-14T15:41:01;27.60;85.70
12752;DHT22;6440;44.616;2.032;2022-08-14T15:43:30;27.60;84.00
12752;DHT22;6440;44.616;2.032;2022-08-14T15:45:59;27.60;83.60
12752;DHT22;6440;44.616;2.032;2022-08-14T15:48:27;27.60;82.60
12752;DHT22;6440;44.616;2.032;2022-08-14T15:50:55;27.60;83.00
12752;DHT22;6440;44.616;2.032;2022-08-14T15:53:22;27.70;80.70
12752;DHT22;6440;44.616;2.032;2022-08-14T15:55:52;27.60;79.60
12752;DHT22;6440;44.616;2.032;2022-08-14T15:58:19;27.70;76.20
12752;DHT22;6440;44.616;2.032;2022-08-14T16:00:48;27.80;75.50
12752;DHT22;6440;44.616;2.032;2022-08-14T16:03:21;27.80;76.20